createdAt,value
2018-09-03T00:00:06.249Z,1018.14
2018-09-03T00:01:06.214Z,1018.13
2018-09-03T00:02:06.266Z,1018.1
2018-09-03T00:03:06.445Z,1018.1
2018-09-03T00:04:06.079Z,1018.07
2018-09-03T00:05:06.328Z,1018.07
2018-09-03T00:06:06.131Z,1018.09
2018-09-03T00:07:06.320Z,1018.09
2018-09-03T00:08:06.162Z,1018.1
2018-09-03T00:09:06.050Z,1018.1
2018-09-03T00:10:06.090Z,1018.11
2018-09-03T00:11:06.163Z,1018.05
2018-09-03T00:12:06.128Z,1018.08
2018-09-03T00:13:06.141Z,1018.04
2018-09-03T00:14:06.012Z,1018.07
2018-09-03T00:15:06.387Z,1018.06
2018-09-03T00:16:06.068Z,1018.02
2018-09-03T00:17:06.340Z,1018.05
2018-09-03T00:18:06.005Z,1018.02
2018-09-03T00:19:06.195Z,1018.01
2018-09-03T00:20:06.237Z,1018.01
2018-09-03T00:21:06.228Z,1018
2018-09-03T00:22:05.991Z,1018.01
2018-09-03T00:23:06.176Z,1018.01
2018-09-03T00:24:06.191Z,1018.03
2018-09-03T00:25:06.280Z,1018.05
2018-09-03T00:26:06.048Z,1018.05
2018-09-03T00:27:06.071Z,1018.04
2018-09-03T00:28:06.057Z,1018.04
2018-09-03T00:29:06.174Z,1018.02
2018-09-03T00:30:06.032Z,1017.99
2018-09-03T00:31:06.671Z,1017.98
2018-09-03T00:32:05.978Z,1018.02
2018-09-03T00:33:06.286Z,1017.95
2018-09-03T00:34:06.115Z,1017.96
2018-09-03T00:35:06.193Z,1017.99
2018-09-03T00:36:06.235Z,1017.99
2018-09-03T00:37:06.162Z,1017.99
2018-09-03T00:38:05.989Z,1017.97
2018-09-03T00:39:06.284Z,1017.99
2018-09-03T00:40:06.015Z,1018.03
2018-09-03T00:41:06.020Z,1018.04
2018-09-03T00:42:06.022Z,1018.06
2018-09-03T00:43:06.417Z,1018.09
2018-09-03T00:44:06.007Z,1018.11
2018-09-03T00:45:06.261Z,1018.14
2018-09-03T00:46:06.033Z,1018.17
2018-09-03T00:47:06.192Z,1018.19
2018-09-03T00:48:06.147Z,1018.19
2018-09-03T00:49:06.175Z,1018.19
2018-09-03T00:50:06.267Z,1018.22
2018-09-03T00:51:06.233Z,1018.17
2018-09-03T00:52:06.296Z,1018.22
2018-09-03T00:53:06.133Z,1018.19
2018-09-03T00:54:06.007Z,1018.22
2018-09-03T00:55:06.161Z,1018.29
2018-09-03T00:56:06.061Z,1018.3
2018-09-03T00:57:06.030Z,1018.35
2018-09-03T00:58:06.089Z,1018.4
2018-09-03T00:59:06.396Z,1018.41
2018-09-03T01:00:06.002Z,1018.45
2018-09-03T01:01:06.099Z,1018.48
2018-09-03T01:02:06.027Z,1018.46
2018-09-03T01:03:06.275Z,1018.46
2018-09-03T01:04:06.051Z,1018.49
2018-09-03T01:05:06.076Z,1018.48
2018-09-03T01:06:06.034Z,1018.54
2018-09-03T01:07:06.146Z,1018.53
2018-09-03T01:08:05.994Z,1018.5
2018-09-03T01:09:06.216Z,1018.52
2018-09-03T01:10:05.985Z,1018.48
2018-09-03T01:11:06.224Z,1018.46
2018-09-03T01:12:05.987Z,1018.52
2018-09-03T01:13:06.157Z,1018.54
2018-09-03T01:14:06.057Z,1018.55
2018-09-03T01:15:06.063Z,1018.55
2018-09-03T01:16:06.080Z,1018.57
2018-09-03T01:17:06.128Z,1018.6
2018-09-03T01:18:06.043Z,1018.57
2018-09-03T01:19:06.115Z,1018.59
2018-09-03T01:20:06.176Z,1018.63
2018-09-03T01:21:06.129Z,1018.61
2018-09-03T01:22:06.143Z,1018.6
2018-09-03T01:23:06.352Z,1018.59
2018-09-03T01:24:06.048Z,1018.61
2018-09-03T01:25:06.113Z,1018.62
2018-09-03T01:26:06.102Z,1018.61
2018-09-03T01:27:06.077Z,1018.61
2018-09-03T01:28:06.090Z,1018.62
2018-09-03T01:29:06.150Z,1018.58
2018-09-03T01:30:06.124Z,1018.57
2018-09-03T01:31:06.265Z,1018.55
2018-09-03T01:32:06.058Z,1018.53
2018-09-03T01:33:05.959Z,1018.51
2018-09-03T01:34:06.019Z,1018.47
2018-09-03T01:35:06.063Z,1018.45
2018-09-03T01:36:06.041Z,1018.47
2018-09-03T01:37:06.639Z,1018.51
2018-09-03T01:38:06.060Z,1018.49
2018-09-03T01:39:06.097Z,1018.44
2018-09-03T01:40:06.073Z,1018.43
2018-09-03T01:41:06.197Z,1018.43
2018-09-03T01:42:06.237Z,1018.41
2018-09-03T01:43:06.136Z,1018.39
2018-09-03T01:44:06.019Z,1018.38
2018-09-03T01:45:06.285Z,1018.4
2018-09-03T01:46:05.977Z,1018.43
2018-09-03T01:47:06.071Z,1018.38
2018-09-03T01:48:06.357Z,1018.35
2018-09-03T01:49:06.156Z,1018.34
2018-09-03T01:50:05.975Z,1018.28
2018-09-03T01:51:06.236Z,1018.27
2018-09-03T01:52:06.010Z,1018.27
2018-09-03T01:53:06.209Z,1018.22
2018-09-03T01:54:05.986Z,1018.21
2018-09-03T01:55:06.136Z,1018.19
2018-09-03T01:56:05.994Z,1018.18
2018-09-03T01:57:06.237Z,1018.15
2018-09-03T01:58:06.043Z,1018.17
2018-09-03T01:59:06.042Z,1018.15
2018-09-03T02:00:05.999Z,1018.15
2018-09-03T02:01:06.277Z,1018.15
2018-09-03T02:02:06.097Z,1018.13
2018-09-03T02:03:06.219Z,1018.12
2018-09-03T02:04:05.973Z,1018.16
2018-09-03T02:05:06.181Z,1018.16
2018-09-03T02:06:06.021Z,1018.23
2018-09-03T02:07:06.069Z,1018.18
2018-09-03T02:08:06.013Z,1018.15
2018-09-03T02:09:06.141Z,1018.17
2018-09-03T02:10:06.013Z,1018.13
2018-09-03T02:11:06.663Z,1018.17
2018-09-03T02:12:06.070Z,1018.15
2018-09-03T02:13:06.155Z,1018.16
2018-09-03T02:14:06.045Z,1018.2
2018-09-03T02:15:06.069Z,1018.21
2018-09-03T02:16:05.935Z,1018.2
2018-09-03T02:17:06.059Z,1018.19
2018-09-03T02:18:06.207Z,1018.18
2018-09-03T02:19:06.600Z,1018.24
2018-09-03T02:20:06.240Z,1018.17
2018-09-03T02:21:06.140Z,1018.18
2018-09-03T02:22:06.017Z,1018.19
2018-09-03T02:23:06.097Z,1018.18
2018-09-03T02:24:05.938Z,1018.2
2018-09-03T02:25:06.148Z,1018.15
2018-09-03T02:26:05.973Z,1018.16
2018-09-03T02:27:06.032Z,1018.13
2018-09-03T02:28:06.212Z,1018.11
2018-09-03T02:29:06.008Z,1018.12
2018-09-03T02:30:06.053Z,1018.1
2018-09-03T02:31:06.029Z,1018.1
2018-09-03T02:32:05.984Z,1018.08
2018-09-03T02:33:06.128Z,1018.07
2018-09-03T02:34:05.939Z,1018.05
2018-09-03T02:35:06.061Z,1018.06
2018-09-03T02:36:05.989Z,1018.05
2018-09-03T02:37:06.093Z,1018.03
2018-09-03T02:38:05.969Z,1018.07
2018-09-03T02:39:06.203Z,1018.03
2018-09-03T02:40:06.018Z,1018.06
2018-09-03T02:41:06.348Z,1018.04
2018-09-03T02:42:06.127Z,1018.03
2018-09-03T02:43:06.328Z,1018.03
2018-09-03T02:44:06.039Z,1018.02
2018-09-03T02:45:06.289Z,1018.03
2018-09-03T02:46:05.956Z,1018.01
2018-09-03T02:47:06.208Z,1017.99
2018-09-03T02:48:05.985Z,1018.01
2018-09-03T02:49:06.301Z,1017.99
2018-09-03T02:50:05.983Z,1018.01
2018-09-03T02:51:06.095Z,1018.04
2018-09-03T02:52:05.975Z,1018.02
2018-09-03T02:53:05.980Z,1017.99
2018-09-03T02:54:06.036Z,1018
2018-09-03T02:55:06.238Z,1017.98
2018-09-03T02:56:06.250Z,1018.01
2018-09-03T02:57:06.216Z,1017.98
2018-09-03T02:58:05.991Z,1017.99
2018-09-03T02:59:06.166Z,1017.95
2018-09-03T03:00:06.004Z,1017.97
2018-09-03T03:01:06.395Z,1017.94
2018-09-03T03:02:06.030Z,1017.91
2018-09-03T03:03:06.200Z,1017.91
2018-09-03T03:04:06.037Z,1017.88
2018-09-03T03:05:06.099Z,1017.82
2018-09-03T03:06:06.189Z,1017.83
2018-09-03T03:07:06.156Z,1017.77
2018-09-03T03:08:06.112Z,1017.82
2018-09-03T03:09:05.987Z,1017.78
2018-09-03T03:10:05.994Z,1017.74
2018-09-03T03:11:06.200Z,1017.72
2018-09-03T03:12:06.026Z,1017.72
2018-09-03T03:13:06.551Z,1017.7
2018-09-03T03:14:06.011Z,1017.69
2018-09-03T03:15:06.295Z,1017.68
2018-09-03T03:16:06.012Z,1017.66
2018-09-03T03:17:06.423Z,1017.66
2018-09-03T03:18:06.048Z,1017.65
2018-09-03T03:19:06.180Z,1017.67
2018-09-03T03:20:05.934Z,1017.64
2018-09-03T03:21:05.995Z,1017.64
2018-09-03T03:22:06.000Z,1017.65
2018-09-03T03:23:06.034Z,1017.66
2018-09-03T03:24:06.320Z,1017.61
2018-09-03T03:25:06.012Z,1017.61
2018-09-03T03:26:06.458Z,1017.61
2018-09-03T03:27:06.474Z,1017.59
2018-09-03T03:28:06.280Z,1017.6
2018-09-03T03:29:06.050Z,1017.64
2018-09-03T03:30:06.082Z,1017.63
2018-09-03T03:31:06.030Z,1017.61
2018-09-03T03:32:05.971Z,1017.63
2018-09-03T03:33:06.172Z,1017.62
2018-09-03T03:34:05.975Z,1017.61
2018-09-03T03:35:06.159Z,1017.6
2018-09-03T03:36:05.974Z,1017.57
2018-09-03T03:37:06.113Z,1017.54
2018-09-03T03:38:06.009Z,1017.52
2018-09-03T03:39:06.028Z,1017.46
2018-09-03T03:40:06.012Z,1017.45
2018-09-03T03:41:06.193Z,1017.42
2018-09-03T03:42:06.174Z,1017.43
2018-09-03T03:43:06.256Z,1017.43
2018-09-03T03:44:05.973Z,1017.42
2018-09-03T03:45:06.138Z,1017.39
2018-09-03T03:46:06.080Z,1017.43
2018-09-03T03:47:06.114Z,1017.44
2018-09-03T03:48:05.949Z,1017.42
2018-09-03T03:49:06.104Z,1017.46
2018-09-03T03:50:06.152Z,1017.46
2018-09-03T03:51:06.039Z,1017.5
2018-09-03T03:52:06.019Z,1017.47
2018-09-03T03:53:06.146Z,1017.52
2018-09-03T03:54:06.114Z,1017.51
2018-09-03T03:55:06.459Z,1017.49
2018-09-03T03:56:06.271Z,1017.55
2018-09-03T03:57:06.070Z,1017.53
2018-09-03T03:58:05.922Z,1017.51
2018-09-03T03:59:06.035Z,1017.53
2018-09-03T04:00:05.960Z,1017.51
2018-09-03T04:01:06.066Z,1017.5
2018-09-03T04:02:06.009Z,1017.51
2018-09-03T04:03:06.192Z,1017.44
2018-09-03T04:04:05.986Z,1017.49
2018-09-03T04:05:06.020Z,1017.42
2018-09-03T04:06:05.973Z,1017.46
2018-09-03T04:07:06.033Z,1017.44
2018-09-03T04:08:06.043Z,1017.45
2018-09-03T04:09:06.123Z,1017.47
2018-09-03T04:10:05.977Z,1017.44
2018-09-03T04:11:06.063Z,1017.46
2018-09-03T04:12:05.942Z,1017.43
2018-09-03T04:13:06.088Z,1017.42
2018-09-03T04:14:05.915Z,1017.46
2018-09-03T04:15:06.157Z,1017.37
2018-09-03T04:16:06.028Z,1017.39
2018-09-03T04:17:06.110Z,1017.39
2018-09-03T04:18:05.981Z,1017.36
2018-09-03T04:19:06.361Z,1017.37
2018-09-03T04:20:05.999Z,1017.37
2018-09-03T04:21:06.104Z,1017.38
2018-09-03T04:22:05.966Z,1017.36
2018-09-03T04:23:06.405Z,1017.37
2018-09-03T04:24:06.283Z,1017.37
2018-09-03T04:25:06.256Z,1017.37
2018-09-03T04:26:05.911Z,1017.35
2018-09-03T04:27:06.111Z,1017.34
2018-09-03T04:28:05.983Z,1017.31
2018-09-03T04:29:06.087Z,1017.3
2018-09-03T04:30:05.993Z,1017.32
2018-09-03T04:31:06.072Z,1017.3
2018-09-03T04:32:06.054Z,1017.32
2018-09-03T04:33:06.126Z,1017.33
2018-09-03T04:34:06.186Z,1017.29
2018-09-03T04:35:06.185Z,1017.29
2018-09-03T04:36:06.042Z,1017.27
2018-09-03T04:37:06.163Z,1017.28
2018-09-03T04:38:06.002Z,1017.32
2018-09-03T04:39:06.251Z,1017.31
2018-09-03T04:40:05.942Z,1017.3
2018-09-03T04:41:06.166Z,1017.29
2018-09-03T04:42:05.955Z,1017.34
2018-09-03T04:43:06.089Z,1017.38
2018-09-03T04:44:06.136Z,1017.4
2018-09-03T04:45:06.135Z,1017.4
2018-09-03T04:46:06.137Z,1017.43
2018-09-03T04:47:06.184Z,1017.44
2018-09-03T04:48:06.511Z,1017.39
2018-09-03T04:49:06.150Z,1017.4
2018-09-03T04:50:05.937Z,1017.37
2018-09-03T04:51:06.139Z,1017.39
2018-09-03T04:52:05.912Z,1017.39
2018-09-03T04:53:06.271Z,1017.34
2018-09-03T04:54:06.173Z,1017.38
2018-09-03T04:55:06.516Z,1017.34
2018-09-03T04:56:06.019Z,1017.33
2018-09-03T04:57:06.207Z,1017.37
2018-09-03T04:58:05.942Z,1017.35
2018-09-03T04:59:06.408Z,1017.35
2018-09-03T05:00:05.910Z,1017.35
2018-09-03T05:01:06.101Z,1017.32
2018-09-03T05:02:05.964Z,1017.35
2018-09-03T05:03:06.168Z,1017.34
2018-09-03T05:04:05.976Z,1017.35
2018-09-03T05:05:06.532Z,1017.3
2018-09-03T05:06:06.073Z,1017.27
2018-09-03T05:07:06.112Z,1017.28
2018-09-03T05:08:06.061Z,1017.27
2018-09-03T05:09:06.174Z,1017.28
2018-09-03T05:10:06.237Z,1017.3
2018-09-03T05:11:06.175Z,1017.33
2018-09-03T05:12:05.959Z,1017.29
2018-09-03T05:13:06.039Z,1017.27
2018-09-03T05:14:05.947Z,1017.31
2018-09-03T05:15:06.340Z,1017.33
2018-09-03T05:16:05.946Z,1017.31
2018-09-03T05:17:06.187Z,1017.36
2018-09-03T05:18:05.979Z,1017.37
2018-09-03T05:19:06.262Z,1017.42
2018-09-03T05:20:06.166Z,1017.36
2018-09-03T05:21:06.203Z,1017.43
2018-09-03T05:22:06.273Z,1017.42
2018-09-03T05:23:06.114Z,1017.41
2018-09-03T05:24:05.959Z,1017.4
2018-09-03T05:25:06.181Z,1017.39
2018-09-03T05:26:05.925Z,1017.4
2018-09-03T05:27:06.215Z,1017.38
2018-09-03T05:28:06.262Z,1017.36
2018-09-03T05:29:06.077Z,1017.4
2018-09-03T05:30:06.023Z,1017.42
2018-09-03T05:31:06.328Z,1017.46
2018-09-03T05:32:05.987Z,1017.48
2018-09-03T05:33:05.983Z,1017.47
2018-09-03T05:34:05.955Z,1017.45
2018-09-03T05:35:06.070Z,1017.45
2018-09-03T05:36:05.933Z,1017.46
2018-09-03T05:37:06.011Z,1017.49
2018-09-03T05:38:05.911Z,1017.5
2018-09-03T05:39:06.215Z,1017.5
2018-09-03T05:40:05.908Z,1017.54
2018-09-03T05:41:06.124Z,1017.53
2018-09-03T05:42:06.079Z,1017.57
2018-09-03T05:43:06.492Z,1017.6
2018-09-03T05:44:06.465Z,1017.6
2018-09-03T05:45:06.724Z,1017.56
2018-09-03T05:46:06.100Z,1017.6
2018-09-03T05:47:05.970Z,1017.61
2018-09-03T05:48:05.966Z,1017.62
2018-09-03T05:49:06.386Z,1017.6
2018-09-03T05:50:06.355Z,1017.62
2018-09-03T05:51:06.121Z,1017.64
2018-09-03T05:52:06.030Z,1017.66
2018-09-03T05:53:06.362Z,1017.63
2018-09-03T05:54:05.961Z,1017.67
2018-09-03T05:55:06.118Z,1017.69
2018-09-03T05:56:05.873Z,1017.66
2018-09-03T05:57:06.184Z,1017.67
2018-09-03T05:58:05.953Z,1017.65
2018-09-03T05:59:06.465Z,1017.65
2018-09-03T06:00:06.054Z,1017.63
2018-09-03T06:01:06.285Z,1017.68
2018-09-03T06:02:05.935Z,1017.66
2018-09-03T06:03:06.331Z,1017.68
2018-09-03T06:04:05.949Z,1017.64
2018-09-03T06:05:06.126Z,1017.59
2018-09-03T06:06:06.175Z,1017.61
2018-09-03T06:07:06.042Z,1017.62
2018-09-03T06:08:05.907Z,1017.61
2018-09-03T06:09:06.070Z,1017.57
2018-09-03T06:10:05.992Z,1017.55
2018-09-03T06:11:06.365Z,1017.56
2018-09-03T06:12:05.929Z,1017.57
2018-09-03T06:13:06.086Z,1017.5
2018-09-03T06:14:05.940Z,1017.55
2018-09-03T06:15:06.160Z,1017.54
2018-09-03T06:16:06.044Z,1017.51
2018-09-03T06:17:06.211Z,1017.54
2018-09-03T06:18:06.070Z,1017.54
2018-09-03T06:19:05.988Z,1017.48
2018-09-03T06:20:06.134Z,1017.49
2018-09-03T06:21:06.207Z,1017.46
2018-09-03T06:22:05.899Z,1017.51
2018-09-03T06:23:06.213Z,1017.51
2018-09-03T06:24:06.401Z,1017.54
2018-09-03T06:25:06.197Z,1017.5
2018-09-03T06:26:06.033Z,1017.48
2018-09-03T06:27:06.022Z,1017.5
2018-09-03T06:28:05.911Z,1017.44
2018-09-03T06:29:06.123Z,1017.47
2018-09-03T06:30:05.880Z,1017.46
2018-09-03T06:31:06.217Z,1017.46
2018-09-03T06:32:06.011Z,1017.44
2018-09-03T06:33:05.950Z,1017.46
2018-09-03T06:34:06.173Z,1017.43
2018-09-03T06:35:06.071Z,1017.44
2018-09-03T06:36:06.155Z,1017.38
2018-09-03T06:37:06.099Z,1017.4
2018-09-03T06:38:06.404Z,1017.39
2018-09-03T06:39:06.399Z,1017.42
2018-09-03T06:40:06.025Z,1017.38
2018-09-03T06:41:06.227Z,1017.42
2018-09-03T06:42:06.185Z,1017.42
2018-09-03T06:43:06.197Z,1017.41
2018-09-03T06:44:05.987Z,1017.42
2018-09-03T06:45:06.025Z,1017.45
2018-09-03T06:46:05.920Z,1017.45
2018-09-03T06:47:06.118Z,1017.41
2018-09-03T06:48:05.959Z,1017.43
2018-09-03T06:49:09.074Z,1017.45
2018-09-03T06:50:05.960Z,1017.45
2018-09-03T06:51:06.064Z,1017.47
2018-09-03T06:52:05.934Z,1017.47
2018-09-03T06:53:06.194Z,1017.45
2018-09-03T06:54:05.913Z,1017.45
2018-09-03T06:55:05.976Z,1017.46
2018-09-03T06:56:06.169Z,1017.46
2018-09-03T06:57:05.980Z,1017.47
2018-09-03T06:58:05.887Z,1017.44
2018-09-03T06:59:05.954Z,1017.45
2018-09-03T07:00:05.967Z,1017.46
2018-09-03T07:01:06.088Z,1017.47
2018-09-03T07:02:05.945Z,1017.41
2018-09-03T07:03:05.918Z,1017.45
2018-09-03T07:04:05.999Z,1017.43
2018-09-03T07:05:06.411Z,1017.47
2018-09-03T07:06:06.030Z,1017.44
2018-09-03T07:07:06.155Z,1017.49
2018-09-03T07:08:06.047Z,1017.48
2018-09-03T07:09:06.261Z,1017.48
2018-09-03T07:10:05.942Z,1017.46
2018-09-03T07:11:06.198Z,1017.47
2018-09-03T07:12:06.021Z,1017.45
2018-09-03T07:13:06.006Z,1017.5
2018-09-03T07:14:06.148Z,1017.49
2018-09-03T07:15:06.153Z,1017.49
2018-09-03T07:16:05.873Z,1017.51
2018-09-03T07:17:05.977Z,1017.48
2018-09-03T07:18:06.032Z,1017.51
2018-09-03T07:19:05.982Z,1017.5
2018-09-03T07:20:05.985Z,1017.47
2018-09-03T07:21:06.045Z,1017.46
2018-09-03T07:22:05.899Z,1017.5
2018-09-03T07:23:06.153Z,1017.53
2018-09-03T07:24:06.078Z,1017.47
2018-09-03T07:25:05.976Z,1017.47
2018-09-03T07:26:06.332Z,1017.43
2018-09-03T07:27:06.212Z,1017.48
2018-09-03T07:28:05.933Z,1017.43
2018-09-03T07:29:06.208Z,1017.45
2018-09-03T07:30:05.859Z,1017.42
2018-09-03T07:31:06.348Z,1017.39
2018-09-03T07:32:06.000Z,1017.4
2018-09-03T07:33:06.193Z,1017.38
2018-09-03T07:34:06.089Z,1017.36
2018-09-03T07:35:06.126Z,1017.4
2018-09-03T07:36:06.336Z,1017.33
2018-09-03T07:37:06.089Z,1017.36
2018-09-03T07:38:05.950Z,1017.32
2018-09-03T07:39:06.360Z,1017.33
2018-09-03T07:40:05.965Z,1017.31
2018-09-03T07:41:06.345Z,1017.34
2018-09-03T07:42:05.955Z,1017.31
2018-09-03T07:43:06.026Z,1017.29
2018-09-03T07:44:06.223Z,1017.31
2018-09-03T07:45:06.033Z,1017.32
2018-09-03T07:46:06.016Z,1017.29
2018-09-03T07:47:06.116Z,1017.3
2018-09-03T07:48:05.937Z,1017.33
2018-09-03T07:49:06.009Z,1017.3
2018-09-03T07:50:05.864Z,1017.34
2018-09-03T07:51:06.259Z,1017.34
2018-09-03T07:52:05.971Z,1017.26
2018-09-03T07:53:06.201Z,1017.33
2018-09-03T07:54:06.123Z,1017.33
2018-09-03T07:55:06.037Z,1017.34
2018-09-03T07:56:05.942Z,1017.34
2018-09-03T07:57:06.291Z,1017.27
2018-09-03T07:58:06.097Z,1017.29
2018-09-03T07:59:06.128Z,1017.32
2018-09-03T08:00:05.999Z,1017.3
2018-09-03T08:01:06.497Z,1017.27
2018-09-03T08:02:06.020Z,1017.31
2018-09-03T08:03:06.070Z,1017.3
2018-09-03T08:04:06.031Z,1017.33
2018-09-03T08:05:06.165Z,1017.35
2018-09-03T08:06:05.906Z,1017.37
2018-09-03T08:07:06.113Z,1017.38
2018-09-03T08:08:06.067Z,1017.33
2018-09-03T08:09:06.109Z,1017.31
2018-09-03T08:10:06.076Z,1017.33
2018-09-03T08:11:06.352Z,1017.32
2018-09-03T08:12:05.858Z,1017.36
2018-09-03T08:13:06.278Z,1017.4
2018-09-03T08:14:05.970Z,1017.39
2018-09-03T08:15:05.988Z,1017.37
2018-09-03T08:16:05.927Z,1017.43
2018-09-03T08:17:06.074Z,1017.45
2018-09-03T08:18:05.919Z,1017.44
2018-09-03T08:19:06.180Z,1017.39
2018-09-03T08:20:06.257Z,1017.43
2018-09-03T08:21:06.063Z,1017.48
2018-09-03T08:22:05.956Z,1017.46
2018-09-03T08:23:06.155Z,1017.45
2018-09-03T08:24:05.915Z,1017.52
2018-09-03T08:25:06.143Z,1017.49
2018-09-03T08:26:05.956Z,1017.48
2018-09-03T08:27:06.170Z,1017.49
2018-09-03T08:28:05.886Z,1017.49
2018-09-03T08:29:05.867Z,1017.49
2018-09-03T08:30:06.100Z,1017.47
2018-09-03T08:31:06.016Z,1017.48
2018-09-03T08:32:06.199Z,1017.46
2018-09-03T08:33:06.144Z,1017.46
2018-09-03T08:34:05.968Z,1017.44
2018-09-03T08:35:06.048Z,1017.43
2018-09-03T08:36:06.030Z,1017.42
2018-09-03T08:37:06.244Z,1017.43
2018-09-03T08:38:06.177Z,1017.44
2018-09-03T08:39:05.899Z,1017.42
2018-09-03T08:40:06.184Z,1017.39
2018-09-03T08:41:06.376Z,1017.4
2018-09-03T08:42:06.098Z,1017.42
2018-09-03T08:43:05.928Z,1017.4
2018-09-03T08:44:06.064Z,1017.35
2018-09-03T08:45:06.177Z,1017.37
2018-09-03T08:46:05.902Z,1017.38
2018-09-03T08:47:05.943Z,1017.35
2018-09-03T08:48:05.911Z,1017.33
2018-09-03T08:49:06.282Z,1017.3
2018-09-03T08:50:05.887Z,1017.31
2018-09-03T08:51:06.141Z,1017.3
2018-09-03T08:52:06.167Z,1017.33
2018-09-03T08:53:06.038Z,1017.31
2018-09-03T08:54:06.181Z,1017.3
2018-09-03T08:55:06.020Z,1017.3
2018-09-03T08:56:05.997Z,1017.27
2018-09-03T08:57:06.206Z,1017.3
2018-09-03T08:58:05.938Z,1017.25
2018-09-03T08:59:06.148Z,1017.22
2018-09-03T09:00:05.872Z,1017.22
2018-09-03T09:01:06.095Z,1017.25
2018-09-03T09:02:05.996Z,1017.21
2018-09-03T09:03:06.078Z,1017.23
2018-09-03T09:04:05.907Z,1017.23
2018-09-03T09:05:06.063Z,1017.22
2018-09-03T09:06:05.929Z,1017.2
2018-09-03T09:07:06.064Z,1017.21
2018-09-03T09:08:05.966Z,1017.21
2018-09-03T09:09:06.079Z,1017.21
2018-09-03T09:10:06.048Z,1017.17
2018-09-03T09:11:06.094Z,1017.23
2018-09-03T09:12:05.955Z,1017.17
2018-09-03T09:13:05.936Z,1017.16
2018-09-03T09:14:05.918Z,1017.15
2018-09-03T09:15:06.200Z,1017.14
2018-09-03T09:16:05.882Z,1017.11
2018-09-03T09:17:06.291Z,1017.13
2018-09-03T09:18:05.831Z,1017.04
2018-09-03T09:19:06.116Z,1017.03
2018-09-03T09:20:05.931Z,1017
2018-09-03T09:21:06.174Z,1017.01
2018-09-03T09:22:05.944Z,1017
2018-09-03T09:23:06.041Z,1017
2018-09-03T09:24:05.837Z,1016.99
2018-09-03T09:25:06.251Z,1017
2018-09-03T09:26:05.987Z,1016.98
2018-09-03T09:27:06.139Z,1016.97
2018-09-03T09:28:05.961Z,1016.94
2018-09-03T09:29:06.094Z,1016.96
2018-09-03T09:30:05.882Z,1016.97
2018-09-03T09:31:06.064Z,1016.94
2018-09-03T09:32:06.402Z,1016.97
2018-09-03T09:33:06.064Z,1016.94
2018-09-03T09:34:05.900Z,1016.97
2018-09-03T09:35:06.070Z,1016.97
2018-09-03T09:36:05.975Z,1016.97
2018-09-03T09:37:06.132Z,1017.01
2018-09-03T09:38:06.040Z,1016.97
2018-09-03T09:39:06.198Z,1017.01
2018-09-03T09:40:05.990Z,1016.99
2018-09-03T09:41:06.007Z,1016.99
2018-09-03T09:42:05.844Z,1016.98
2018-09-03T09:43:06.345Z,1016.99
2018-09-03T09:44:05.969Z,1016.98
2018-09-03T09:45:05.965Z,1016.96
2018-09-03T09:46:05.925Z,1016.97
2018-09-03T09:47:05.989Z,1016.98
2018-09-03T09:48:05.892Z,1017
2018-09-03T09:49:06.044Z,1017
2018-09-03T09:50:05.920Z,1016.99
2018-09-03T09:51:06.134Z,1016.98
2018-09-03T09:52:05.931Z,1017
2018-09-03T09:53:05.982Z,1017
2018-09-03T09:54:05.830Z,1016.99
2018-09-03T09:55:06.008Z,1016.96
2018-09-03T09:56:06.095Z,1016.97
2018-09-03T09:57:06.131Z,1016.88
2018-09-03T09:58:05.844Z,1016.95
2018-09-03T09:59:05.992Z,1016.87
2018-09-03T10:00:06.447Z,1016.89
2018-09-03T10:01:06.049Z,1016.92
2018-09-03T10:02:06.042Z,1016.87
2018-09-03T10:03:06.278Z,1016.84
2018-09-03T10:04:05.931Z,1016.86
2018-09-03T10:05:06.257Z,1016.8
2018-09-03T10:06:05.940Z,1016.84
2018-09-03T10:07:06.192Z,1016.81
2018-09-03T10:08:05.904Z,1016.81
2018-09-03T10:09:05.986Z,1016.86
2018-09-03T10:10:06.131Z,1016.83
2018-09-03T10:11:06.137Z,1016.84
2018-09-03T10:12:06.146Z,1016.86
2018-09-03T10:13:05.946Z,1016.84
2018-09-03T10:14:06.852Z,1016.85
2018-09-03T10:15:06.093Z,1016.81
2018-09-03T10:16:05.997Z,1016.82
2018-09-03T10:17:06.681Z,1016.84
2018-09-03T10:18:05.872Z,1016.83
2018-09-03T10:19:05.955Z,1016.79
2018-09-03T10:20:05.863Z,1016.79
2018-09-03T10:21:06.398Z,1016.79
2018-09-03T10:22:05.928Z,1016.76
2018-09-03T10:23:06.185Z,1016.75
2018-09-03T10:24:05.870Z,1016.74
2018-09-03T10:25:05.994Z,1016.74
2018-09-03T10:26:05.841Z,1016.75
2018-09-03T10:27:06.030Z,1016.81
2018-09-03T10:28:06.054Z,1016.8
2018-09-03T10:29:06.105Z,1016.83
2018-09-03T10:30:05.886Z,1016.78
2018-09-03T10:31:06.032Z,1016.79
2018-09-03T10:32:05.974Z,1016.77
2018-09-03T10:33:05.919Z,1016.77
2018-09-03T10:34:05.930Z,1016.76
2018-09-03T10:35:06.044Z,1016.75
2018-09-03T10:36:05.925Z,1016.71
2018-09-03T10:37:06.190Z,1016.74
2018-09-03T10:38:06.271Z,1016.76
2018-09-03T10:39:06.186Z,1016.66
2018-09-03T10:40:05.952Z,1016.64
2018-09-03T10:41:06.003Z,1016.65
2018-09-03T10:42:06.339Z,1016.63
2018-09-03T10:43:06.095Z,1016.6
2018-09-03T10:44:06.015Z,1016.67
2018-09-03T10:45:06.271Z,1016.68
2018-09-03T10:46:05.838Z,1016.71
2018-09-03T10:47:06.513Z,1016.72
2018-09-03T10:48:05.936Z,1016.71
2018-09-03T10:49:05.849Z,1016.73
2018-09-03T10:50:05.858Z,1016.75
2018-09-03T10:51:06.256Z,1016.7
2018-09-03T10:52:05.956Z,1016.72
2018-09-03T10:53:05.989Z,1016.72
2018-09-03T10:54:05.915Z,1016.68
2018-09-03T10:55:06.043Z,1016.7
2018-09-03T10:56:06.207Z,1016.71
2018-09-03T10:57:06.414Z,1016.65
2018-09-03T10:58:05.929Z,1016.67
2018-09-03T10:59:05.980Z,1016.64
2018-09-03T11:00:05.863Z,1016.64
2018-09-03T11:01:06.065Z,1016.64
2018-09-03T11:02:05.868Z,1016.64
2018-09-03T11:03:06.086Z,1016.64
2018-09-03T11:04:05.876Z,1016.62
2018-09-03T11:05:06.160Z,1016.61
2018-09-03T11:06:05.974Z,1016.65
2018-09-03T11:07:06.114Z,1016.67
2018-09-03T11:08:05.869Z,1016.62
2018-09-03T11:09:06.125Z,1016.67
2018-09-03T11:10:05.845Z,1016.64
2018-09-03T11:11:06.076Z,1016.64
2018-09-03T11:12:05.854Z,1016.7
2018-09-03T11:13:06.132Z,1016.64
2018-09-03T11:14:06.110Z,1016.67
2018-09-03T11:15:06.113Z,1016.62
2018-09-03T11:16:05.973Z,1016.64
2018-09-03T11:17:05.979Z,1016.66
2018-09-03T11:18:05.952Z,1016.67
2018-09-03T11:19:05.881Z,1016.66
2018-09-03T11:20:06.472Z,1016.64
2018-09-03T11:21:06.228Z,1016.6
2018-09-03T11:22:05.979Z,1016.62
2018-09-03T11:23:06.151Z,1016.58
2018-09-03T11:24:06.201Z,1016.62
2018-09-03T11:25:06.053Z,1016.57
2018-09-03T11:26:05.869Z,1016.56
2018-09-03T11:27:05.980Z,1016.56
2018-09-03T11:28:05.857Z,1016.55
2018-09-03T11:29:06.094Z,1016.58
2018-09-03T11:30:05.858Z,1016.58
2018-09-03T11:31:06.047Z,1016.58
2018-09-03T11:32:05.924Z,1016.56
2018-09-03T11:33:06.116Z,1016.56
2018-09-03T11:34:06.010Z,1016.51
2018-09-03T11:35:06.162Z,1016.52
2018-09-03T11:36:05.974Z,1016.5
2018-09-03T11:37:06.138Z,1016.47
2018-09-03T11:38:05.841Z,1016.47
2018-09-03T11:39:06.049Z,1016.48
2018-09-03T11:40:05.886Z,1016.51
2018-09-03T11:41:06.185Z,1016.54
2018-09-03T11:42:05.910Z,1016.46
2018-09-03T11:43:06.139Z,1016.52
2018-09-03T11:44:05.893Z,1016.48
2018-09-03T11:45:06.218Z,1016.5
2018-09-03T11:46:05.927Z,1016.48
2018-09-03T11:47:06.312Z,1016.54
2018-09-03T11:48:05.905Z,1016.54
2018-09-03T11:49:06.287Z,1016.51
2018-09-03T11:50:05.864Z,1016.56
2018-09-03T11:51:05.959Z,1016.53
2018-09-03T11:52:06.008Z,1016.56
2018-09-03T11:53:06.021Z,1016.54
2018-09-03T11:54:06.090Z,1016.53
2018-09-03T11:55:06.062Z,1016.49
2018-09-03T11:56:05.903Z,1016.48
2018-09-03T11:57:05.971Z,1016.46
2018-09-03T11:58:05.838Z,1016.47
2018-09-03T11:59:06.056Z,1016.5
2018-09-03T12:00:06.048Z,1016.47
2018-09-03T12:01:06.141Z,1016.41
2018-09-03T12:02:06.614Z,1016.42
2018-09-03T12:03:06.010Z,1016.4
2018-09-03T12:04:05.895Z,1016.41
2018-09-03T12:05:06.296Z,1016.4
2018-09-03T12:06:06.109Z,1016.37
2018-09-03T12:07:06.115Z,1016.44
2018-09-03T12:08:05.870Z,1016.43